Terminal Aerodrome Forecast
Issued by NWS

Home | Current Version | Previous Version | Text Only | Print | Product List | Glossary On
Versions: 1 2 3 4 5 6 7 8 9 10 11 12 13 14
000
FTUS46 KPDT 041720
TAFBDN
TAF
KBDN 041720Z 0418/0518 35006KT P6SM VCSH BKN070
     FM042000 34009G18KT P6SM VCSH OVC060
     FM050100 34010KT P6SM -SHRA OVC045
     FM050800 VRB04KT 6SM -SHRA BKN030 OVC040
     FM051500 VRB04KT P6SM BKN070=

USA.gov is the U.S. government's official web portal to all federal, state and local government web resources and services.